sensor_id;sensor_type;location;lat;lon;timestamp;P1;durP1;ratioP1;P2;durP2;ratioP2
19780;SDS011;10050;55.492;13.506;2023-02-21T00:00:16;32.37;;;5.03;;
19780;SDS011;10050;55.492;13.506;2023-02-21T00:03:00;22.53;;;5.07;;
19780;SDS011;10050;55.492;13.506;2023-02-21T00:05:44;27.43;;;4.87;;
19780;SDS011;10050;55.492;13.506;2023-02-21T00:08:29;32.47;;;5.30;;
19780;SDS011;10050;55.492;13.506;2023-02-21T00:11:13;24.73;;;4.80;;
19780;SDS011;10050;55.492;13.506;2023-02-21T00:13:57;27.37;;;5.20;;
19780;SDS011;10050;55.492;13.506;2023-02-21T00:16:41;23.63;;;5.00;;
19780;SDS011;10050;55.492;13.506;2023-02-21T00:19:25;24.77;;;5.37;;
19780;SDS011;10050;55.492;13.506;2023-02-21T00:22:10;23.53;;;4.83;;
19780;SDS011;10050;55.492;13.506;2023-02-21T00:24:54;20.43;;;4.73;;
19780;SDS011;10050;55.492;13.506;2023-02-21T00:27:38;28.60;;;4.87;;
19780;SDS011;10050;55.492;13.506;2023-02-21T00:30:23;27.37;;;4.60;;
19780;SDS011;10050;55.492;13.506;2023-02-21T00:33:07;22.13;;;4.80;;
19780;SDS011;10050;55.492;13.506;2023-02-21T00:35:51;28.37;;;5.53;;
19780;SDS011;10050;55.492;13.506;2023-02-21T00:38:36;20.40;;;4.93;;
19780;SDS011;10050;55.492;13.506;2023-02-21T00:41:20;17.07;;;4.10;;
19780;SDS011;10050;55.492;13.506;2023-02-21T00:44:05;21.20;;;4.83;;
19780;SDS011;10050;55.492;13.506;2023-02-21T00:46:49;16.57;;;3.77;;
19780;SDS011;10050;55.492;13.506;2023-02-21T00:49:33;24.43;;;4.97;;
19780;SDS011;10050;55.492;13.506;2023-02-21T00:52:18;21.17;;;4.87;;
19780;SDS011;10050;55.492;13.506;2023-02-21T00:55:02;21.23;;;5.10;;
19780;SDS011;10050;55.492;13.506;2023-02-21T00:57:47;24.37;;;4.63;;
19780;SDS011;10050;55.492;13.506;2023-02-21T01:00:31;21.00;;;4.13;;
19780;SDS011;10050;55.492;13.506;2023-02-21T01:03:15;31.00;;;5.07;;
19780;SDS011;10050;55.492;13.506;2023-02-21T01:05:59;22.00;;;4.27;;
19780;SDS011;10050;55.492;13.506;2023-02-21T01:08:44;25.30;;;4.60;;
19780;SDS011;10050;55.492;13.506;2023-02-21T01:11:29;25.20;;;6.43;;
19780;SDS011;10050;55.492;13.506;2023-02-21T01:14:13;14.97;;;4.63;;
19780;SDS011;10050;55.492;13.506;2023-02-21T01:16:58;28.47;;;5.40;;
19780;SDS011;10050;55.492;13.506;2023-02-21T01:19:42;17.83;;;3.93;;
19780;SDS011;10050;55.492;13.506;2023-02-21T01:22:27;21.00;;;4.07;;
19780;SDS011;10050;55.492;13.506;2023-02-21T01:25:12;26.43;;;4.17;;
19780;SDS011;10050;55.492;13.506;2023-02-21T01:27:57;21.70;;;4.77;;
19780;SDS011;10050;55.492;13.506;2023-02-21T01:30:41;22.83;;;4.37;;
19780;SDS011;10050;55.492;13.506;2023-02-21T01:33:25;20.73;;;4.00;;
19780;SDS011;10050;55.492;13.506;2023-02-21T01:36:10;24.40;;;4.43;;
19780;SDS011;10050;55.492;13.506;2023-02-21T01:38:54;20.33;;;3.90;;
19780;SDS011;10050;55.492;13.506;2023-02-21T01:41:38;18.63;;;4.10;;
19780;SDS011;10050;55.492;13.506;2023-02-21T01:44:36;21.93;;;4.53;;
19780;SDS011;10050;55.492;13.506;2023-02-21T01:47:22;21.80;;;4.10;;
19780;SDS011;10050;55.492;13.506;2023-02-21T01:50:18;19.37;;;4.20;;
19780;SDS011;10050;55.492;13.506;2023-02-21T01:53:09;25.57;;;4.70;;
19780;SDS011;10050;55.492;13.506;2023-02-21T01:55:58;28.70;;;5.87;;
19780;SDS011;10050;55.492;13.506;2023-02-21T01:58:44;20.53;;;5.13;;
19780;SDS011;10050;55.492;13.506;2023-02-21T02:01:44;21.90;;;4.50;;
19780;SDS011;10050;55.492;13.506;2023-02-21T02:04:35;19.70;;;4.90;;
19780;SDS011;10050;55.492;13.506;2023-02-21T02:07:20;23.30;;;5.30;;
19780;SDS011;10050;55.492;13.506;2023-02-21T02:10:04;23.60;;;4.43;;
19780;SDS011;10050;55.492;13.506;2023-02-21T02:15:42;22.53;;;3.97;;
19780;SDS011;10050;55.492;13.506;2023-02-21T02:26:55;20.03;;;3.97;;
19780;SDS011;10050;55.492;13.506;2023-02-21T02:38:15;21.97;;;4.37;;
19780;SDS011;10050;55.492;13.506;2023-02-21T02:43:55;20.10;;;4.53;;
19780;SDS011;10050;55.492;13.506;2023-02-21T02:46:30;21.23;;;4.07;;
19780;SDS011;10050;55.492;13.506;2023-02-21T02:49:05;23.70;;;4.60;;
19780;SDS011;10050;55.492;13.506;2023-02-21T02:51:49;24.13;;;4.53;;
19780;SDS011;10050;55.492;13.506;2023-02-21T02:54:16;17.20;;;4.60;;
19780;SDS011;10050;55.492;13.506;2023-02-21T02:56:42;14.73;;;4.23;;
19780;SDS011;10050;55.492;13.506;2023-02-21T02:59:13;23.57;;;5.37;;
19780;SDS011;10050;55.492;13.506;2023-02-21T03:07:37;20.27;;;4.60;;
19780;SDS011;10050;55.492;13.506;2023-02-21T03:15:44;19.73;;;4.33;;
19780;SDS011;10050;55.492;13.506;2023-02-21T03:18:19;23.00;;;4.73;;
19780;SDS011;10050;55.492;13.506;2023-02-21T03:20:56;19.80;;;4.90;;
19780;SDS011;10050;55.492;13.506;2023-02-21T03:23:25;19.50;;;4.63;;
19780;SDS011;10050;55.492;13.506;2023-02-21T03:25:53;23.53;;;4.33;;
19780;SDS011;10050;55.492;13.506;2023-02-21T03:28:26;14.97;;;4.27;;
19780;SDS011;10050;55.492;13.506;2023-02-21T03:30:54;29.20;;;4.93;;
19780;SDS011;10050;55.492;13.506;2023-02-21T03:33:23;19.13;;;4.17;;
19780;SDS011;10050;55.492;13.506;2023-02-21T03:35:49;18.10;;;4.37;;
19780;SDS011;10050;55.492;13.506;2023-02-21T03:38:15;14.57;;;4.00;;
19780;SDS011;10050;55.492;13.506;2023-02-21T03:40:41;13.63;;;4.23;;
19780;SDS011;10050;55.492;13.506;2023-02-21T03:43:06;22.03;;;4.67;;
19780;SDS011;10050;55.492;13.506;2023-02-21T03:45:32;26.67;;;5.13;;
19780;SDS011;10050;55.492;13.506;2023-02-21T03:47:59;19.57;;;4.80;;
19780;SDS011;10050;55.492;13.506;2023-02-21T03:50:24;23.10;;;5.43;;
19780;SDS011;10050;55.492;13.506;2023-02-21T03:52:50;22.20;;;4.40;;
19780;SDS011;10050;55.492;13.506;2023-02-21T03:55:16;15.33;;;4.70;;
19780;SDS011;10050;55.492;13.506;2023-02-21T03:57:42;17.87;;;3.80;;
19780;SDS011;10050;55.492;13.506;2023-02-21T04:00:08;21.67;;;4.90;;
19780;SDS011;10050;55.492;13.506;2023-02-21T04:02:34;17.87;;;4.37;;
19780;SDS011;10050;55.492;13.506;2023-02-21T04:05:00;23.03;;;5.00;;
19780;SDS011;10050;55.492;13.506;2023-02-21T04:07:25;22.53;;;5.23;;
19780;SDS011;10050;55.492;13.506;2023-02-21T04:09:51;24.00;;;4.83;;
19780;SDS011;10050;55.492;13.506;2023-02-21T04:12:17;21.33;;;4.63;;
19780;SDS011;10050;55.492;13.506;2023-02-21T04:14:43;22.77;;;4.03;;
19780;SDS011;10050;55.492;13.506;2023-02-21T04:17:08;21.57;;;4.67;;
19780;SDS011;10050;55.492;13.506;2023-02-21T04:19:34;22.57;;;4.63;;
19780;SDS011;10050;55.492;13.506;2023-02-21T04:22:00;26.50;;;4.93;;
19780;SDS011;10050;55.492;13.506;2023-02-21T04:24:25;19.57;;;5.20;;
19780;SDS011;10050;55.492;13.506;2023-02-21T04:26:51;24.93;;;5.13;;
19780;SDS011;10050;55.492;13.506;2023-02-21T04:29:17;20.17;;;4.97;;
19780;SDS011;10050;55.492;13.506;2023-02-21T04:31:42;17.07;;;4.90;;
19780;SDS011;10050;55.492;13.506;2023-02-21T04:34:08;25.63;;;4.87;;
19780;SDS011;10050;55.492;13.506;2023-02-21T04:36:34;22.73;;;4.87;;
19780;SDS011;10050;55.492;13.506;2023-02-21T04:39:01;29.60;;;5.27;;
19780;SDS011;10050;55.492;13.506;2023-02-21T04:41:26;30.73;;;5.17;;
19780;SDS011;10050;55.492;13.506;2023-02-21T04:43:52;30.60;;;4.93;;
19780;SDS011;10050;55.492;13.506;2023-02-21T04:46:18;30.53;;;5.63;;
19780;SDS011;10050;55.492;13.506;2023-02-21T04:48:44;24.63;;;5.17;;
19780;SDS011;10050;55.492;13.506;2023-02-21T04:51:12;28.80;;;4.90;;
19780;SDS011;10050;55.492;13.506;2023-02-21T04:53:39;32.20;;;6.27;;
19780;SDS011;10050;55.492;13.506;2023-02-21T04:56:05;31.13;;;5.97;;
19780;SDS011;10050;55.492;13.506;2023-02-21T04:58:31;24.00;;;4.73;;
19780;SDS011;10050;55.492;13.506;2023-02-21T05:00:57;29.57;;;5.33;;
19780;SDS011;10050;55.492;13.506;2023-02-21T05:03:22;24.93;;;5.67;;
19780;SDS011;10050;55.492;13.506;2023-02-21T05:05:48;24.30;;;5.10;;
19780;SDS011;10050;55.492;13.506;2023-02-21T05:08:15;25.37;;;5.67;;
19780;SDS011;10050;55.492;13.506;2023-02-21T05:10:41;25.77;;;5.57;;
19780;SDS011;10050;55.492;13.506;2023-02-21T05:13:06;25.60;;;5.87;;
19780;SDS011;10050;55.492;13.506;2023-02-21T05:15:32;23.17;;;5.43;;
19780;SDS011;10050;55.492;13.506;2023-02-21T05:17:57;32.63;;;6.73;;
19780;SDS011;10050;55.492;13.506;2023-02-21T05:20:23;33.83;;;6.50;;
19780;SDS011;10050;55.492;13.506;2023-02-21T05:22:49;26.67;;;5.43;;
19780;SDS011;10050;55.492;13.506;2023-02-21T05:25:15;33.93;;;6.40;;
19780;SDS011;10050;55.492;13.506;2023-02-21T05:27:43;32.97;;;6.73;;
19780;SDS011;10050;55.492;13.506;2023-02-21T05:30:10;29.10;;;5.73;;
19780;SDS011;10050;55.492;13.506;2023-02-21T05:32:37;28.97;;;5.93;;
19780;SDS011;10050;55.492;13.506;2023-02-21T05:35:03;30.83;;;6.30;;
19780;SDS011;10050;55.492;13.506;2023-02-21T05:37:29;30.87;;;6.20;;
19780;SDS011;10050;55.492;13.506;2023-02-21T05:39:54;28.37;;;6.93;;
19780;SDS011;10050;55.492;13.506;2023-02-21T05:42:20;29.07;;;6.10;;
19780;SDS011;10050;55.492;13.506;2023-02-21T05:44:46;37.00;;;7.20;;
19780;SDS011;10050;55.492;13.506;2023-02-21T05:47:12;38.20;;;6.90;;
19780;SDS011;10050;55.492;13.506;2023-02-21T05:49:39;30.00;;;6.07;;
19780;SDS011;10050;55.492;13.506;2023-02-21T05:52:05;22.47;;;6.33;;
19780;SDS011;10050;55.492;13.506;2023-02-21T05:54:30;33.90;;;5.90;;
19780;SDS011;10050;55.492;13.506;2023-02-21T05:56:56;28.60;;;6.57;;
19780;SDS011;10050;55.492;13.506;2023-02-21T05:59:22;28.70;;;5.93;;
19780;SDS011;10050;55.492;13.506;2023-02-21T06:01:48;39.27;;;6.30;;
19780;SDS011;10050;55.492;13.506;2023-02-21T06:04:15;28.60;;;6.13;;
19780;SDS011;10050;55.492;13.506;2023-02-21T06:06:41;26.40;;;6.87;;
19780;SDS011;10050;55.492;13.506;2023-02-21T06:09:08;28.83;;;5.70;;
19780;SDS011;10050;55.492;13.506;2023-02-21T06:11:34;27.97;;;6.63;;
19780;SDS011;10050;55.492;13.506;2023-02-21T06:14:02;31.93;;;6.50;;
19780;SDS011;10050;55.492;13.506;2023-02-21T06:16:33;33.07;;;6.13;;
19780;SDS011;10050;55.492;13.506;2023-02-21T06:18:59;31.33;;;6.10;;
19780;SDS011;10050;55.492;13.506;2023-02-21T06:21:25;26.50;;;5.90;;
19780;SDS011;10050;55.492;13.506;2023-02-21T06:23:51;34.27;;;6.83;;
19780;SDS011;10050;55.492;13.506;2023-02-21T06:26:17;23.07;;;5.33;;
19780;SDS011;10050;55.492;13.506;2023-02-21T06:28:44;27.77;;;5.67;;
19780;SDS011;10050;55.492;13.506;2023-02-21T06:31:10;30.90;;;6.10;;
19780;SDS011;10050;55.492;13.506;2023-02-21T06:33:35;29.17;;;5.67;;
19780;SDS011;10050;55.492;13.506;2023-02-21T06:36:05;29.37;;;6.10;;
19780;SDS011;10050;55.492;13.506;2023-02-21T06:38:32;24.40;;;6.10;;
19780;SDS011;10050;55.492;13.506;2023-02-21T06:40:58;25.40;;;5.67;;
19780;SDS011;10050;55.492;13.506;2023-02-21T06:43:24;37.53;;;6.83;;
19780;SDS011;10050;55.492;13.506;2023-02-21T06:45:50;27.30;;;6.53;;
19780;SDS011;10050;55.492;13.506;2023-02-21T06:48:15;24.10;;;5.00;;
19780;SDS011;10050;55.492;13.506;2023-02-21T06:50:42;22.80;;;5.37;;
19780;SDS011;10050;55.492;13.506;2023-02-21T06:53:08;33.87;;;6.07;;
19780;SDS011;10050;55.492;13.506;2023-02-21T06:55:33;33.07;;;6.23;;
19780;SDS011;10050;55.492;13.506;2023-02-21T06:57:59;25.37;;;5.07;;
19780;SDS011;10050;55.492;13.506;2023-02-21T07:00:25;26.57;;;5.43;;
19780;SDS011;10050;55.492;13.506;2023-02-21T07:02:53;26.00;;;5.27;;
19780;SDS011;10050;55.492;13.506;2023-02-21T07:05:19;20.13;;;4.50;;
19780;SDS011;10050;55.492;13.506;2023-02-21T07:07:45;25.40;;;5.97;;
19780;SDS011;10050;55.492;13.506;2023-02-21T07:10:11;26.30;;;5.50;;
19780;SDS011;10050;55.492;13.506;2023-02-21T07:12:37;24.03;;;5.47;;
19780;SDS011;10050;55.492;13.506;2023-02-21T07:15:03;20.60;;;5.37;;
19780;SDS011;10050;55.492;13.506;2023-02-21T07:17:29;22.57;;;5.10;;
19780;SDS011;10050;55.492;13.506;2023-02-21T07:19:55;23.37;;;5.00;;
19780;SDS011;10050;55.492;13.506;2023-02-21T07:22:21;22.43;;;5.70;;
19780;SDS011;10050;55.492;13.506;2023-02-21T07:24:50;33.87;;;5.37;;
19780;SDS011;10050;55.492;13.506;2023-02-21T07:27:17;23.97;;;5.00;;
19780;SDS011;10050;55.492;13.506;2023-02-21T07:29:45;24.90;;;5.57;;
19780;SDS011;10050;55.492;13.506;2023-02-21T07:32:12;28.33;;;5.57;;
19780;SDS011;10050;55.492;13.506;2023-02-21T07:34:38;27.60;;;5.77;;
19780;SDS011;10050;55.492;13.506;2023-02-21T07:37:03;28.93;;;5.60;;
19780;SDS011;10050;55.492;13.506;2023-02-21T07:39:29;28.27;;;4.80;;
19780;SDS011;10050;55.492;13.506;2023-02-21T07:41:54;25.77;;;5.10;;
19780;SDS011;10050;55.492;13.506;2023-02-21T07:44:20;27.00;;;4.90;;
19780;SDS011;10050;55.492;13.506;2023-02-21T07:46:46;29.13;;;5.20;;
19780;SDS011;10050;55.492;13.506;2023-02-21T07:49:11;30.43;;;5.90;;
19780;SDS011;10050;55.492;13.506;2023-02-21T07:51:37;30.33;;;6.00;;
19780;SDS011;10050;55.492;13.506;2023-02-21T07:54:02;23.93;;;4.93;;
19780;SDS011;10050;55.492;13.506;2023-02-21T07:56:28;25.53;;;5.50;;
19780;SDS011;10050;55.492;13.506;2023-02-21T07:58:54;28.63;;;5.93;;
19780;SDS011;10050;55.492;13.506;2023-02-21T08:01:21;30.47;;;5.37;;
19780;SDS011;10050;55.492;13.506;2023-02-21T08:03:48;24.43;;;5.23;;
19780;SDS011;10050;55.492;13.506;2023-02-21T08:06:13;22.63;;;5.03;;
19780;SDS011;10050;55.492;13.506;2023-02-21T08:08:39;21.53;;;4.30;;
19780;SDS011;10050;55.492;13.506;2023-02-21T08:11:05;18.77;;;4.60;;
19780;SDS011;10050;55.492;13.506;2023-02-21T08:13:30;22.43;;;4.80;;
19780;SDS011;10050;55.492;13.506;2023-02-21T08:15:56;22.40;;;4.63;;
19780;SDS011;10050;55.492;13.506;2023-02-21T08:18:22;19.80;;;5.27;;
19780;SDS011;10050;55.492;13.506;2023-02-21T08:20:52;27.77;;;4.80;;
19780;SDS011;10050;55.492;13.506;2023-02-21T08:23:19;27.10;;;4.97;;
19780;SDS011;10050;55.492;13.506;2023-02-21T08:25:45;24.07;;;5.60;;
19780;SDS011;10050;55.492;13.506;2023-02-21T08:28:12;23.47;;;4.90;;
19780;SDS011;10050;55.492;13.506;2023-02-21T08:30:38;24.27;;;5.00;;
19780;SDS011;10050;55.492;13.506;2023-02-21T08:33:04;23.50;;;4.70;;
19780;SDS011;10050;55.492;13.506;2023-02-21T08:35:30;18.77;;;4.90;;
19780;SDS011;10050;55.492;13.506;2023-02-21T08:37:56;17.73;;;4.10;;
19780;SDS011;10050;55.492;13.506;2023-02-21T08:40:27;16.03;;;4.40;;
19780;SDS011;10050;55.492;13.506;2023-02-21T08:42:54;13.47;;;4.50;;
19780;SDS011;10050;55.492;13.506;2023-02-21T08:45:20;17.07;;;4.80;;
19780;SDS011;10050;55.492;13.506;2023-02-21T08:47:47;14.60;;;4.83;;
19780;SDS011;10050;55.492;13.506;2023-02-21T08:50:13;17.47;;;4.70;;
19780;SDS011;10050;55.492;13.506;2023-02-21T08:52:39;13.90;;;4.57;;
19780;SDS011;10050;55.492;13.506;2023-02-21T08:55:05;10.53;;;3.37;;
19780;SDS011;10050;55.492;13.506;2023-02-21T08:57:31;17.67;;;4.23;;
19780;SDS011;10050;55.492;13.506;2023-02-21T08:59:58;16.57;;;4.70;;
19780;SDS011;10050;55.492;13.506;2023-02-21T09:02:25;16.40;;;4.03;;
19780;SDS011;10050;55.492;13.506;2023-02-21T09:04:52;18.40;;;3.90;;
19780;SDS011;10050;55.492;13.506;2023-02-21T09:07:19;17.83;;;3.83;;
19780;SDS011;10050;55.492;13.506;2023-02-21T09:09:46;19.33;;;5.20;;
19780;SDS011;10050;55.492;13.506;2023-02-21T09:12:11;17.37;;;4.10;;
19780;SDS011;10050;55.492;13.506;2023-02-21T09:14:38;17.30;;;4.73;;
19780;SDS011;10050;55.492;13.506;2023-02-21T09:17:05;19.33;;;4.23;;
19780;SDS011;10050;55.492;13.506;2023-02-21T09:19:33;21.17;;;4.80;;
19780;SDS011;10050;55.492;13.506;2023-02-21T09:21:59;16.70;;;4.17;;
19780;SDS011;10050;55.492;13.506;2023-02-21T09:24:25;19.73;;;3.63;;
19780;SDS011;10050;55.492;13.506;2023-02-21T09:26:52;19.70;;;4.97;;
19780;SDS011;10050;55.492;13.506;2023-02-21T09:29:19;14.73;;;3.87;;
19780;SDS011;10050;55.492;13.506;2023-02-21T09:31:47;27.63;;;5.00;;
19780;SDS011;10050;55.492;13.506;2023-02-21T09:34:13;21.90;;;4.20;;
19780;SDS011;10050;55.492;13.506;2023-02-21T09:36:39;17.17;;;4.43;;
19780;SDS011;10050;55.492;13.506;2023-02-21T09:39:04;15.77;;;4.27;;
19780;SDS011;10050;55.492;13.506;2023-02-21T09:41:31;20.33;;;4.93;;
19780;SDS011;10050;55.492;13.506;2023-02-21T09:43:59;22.30;;;4.03;;
19780;SDS011;10050;55.492;13.506;2023-02-21T09:49:29;14.67;;;4.07;;
19780;SDS011;10050;55.492;13.506;2023-02-21T09:51:52;20.07;;;4.23;;
19780;SDS011;10050;55.492;13.506;2023-02-21T09:57:11;13.70;;;4.40;;
19780;SDS011;10050;55.492;13.506;2023-02-21T09:59:39;15.27;;;3.93;;
19780;SDS011;10050;55.492;13.506;2023-02-21T10:05:01;12.50;;;3.67;;
19780;SDS011;10050;55.492;13.506;2023-02-21T10:10:06;19.70;;;4.37;;
19780;SDS011;10050;55.492;13.506;2023-02-21T10:13:27;23.97;;;4.50;;
19780;SDS011;10050;55.492;13.506;2023-02-21T10:15:36;13.37;;;3.70;;
19780;SDS011;10050;55.492;13.506;2023-02-21T10:20:55;17.53;;;3.90;;
19780;SDS011;10050;55.492;13.506;2023-02-21T10:25:57;12.37;;;3.80;;
19780;SDS011;10050;55.492;13.506;2023-02-21T10:28:27;16.47;;;4.07;;
19780;SDS011;10050;55.492;13.506;2023-02-21T10:30:57;20.80;;;3.70;;
19780;SDS011;10050;55.492;13.506;2023-02-21T10:33:26;16.83;;;3.93;;
19780;SDS011;10050;55.492;13.506;2023-02-21T10:35:53;15.87;;;4.00;;
19780;SDS011;10050;55.492;13.506;2023-02-21T10:38:20;17.57;;;3.53;;
19780;SDS011;10050;55.492;13.506;2023-02-21T10:40:55;11.87;;;3.73;;
19780;SDS011;10050;55.492;13.506;2023-02-21T10:43:37;10.77;;;3.17;;
19780;SDS011;10050;55.492;13.506;2023-02-21T10:46:09;13.50;;;3.53;;
19780;SDS011;10050;55.492;13.506;2023-02-21T10:48:45;16.93;;;3.67;;
19780;SDS011;10050;55.492;13.506;2023-02-21T10:51:15;18.23;;;4.20;;
19780;SDS011;10050;55.492;13.506;2023-02-21T10:53:52;14.40;;;3.30;;
19780;SDS011;10050;55.492;13.506;2023-02-21T10:56:19;10.43;;;3.20;;
19780;SDS011;10050;55.492;13.506;2023-02-21T10:58:49;16.80;;;4.03;;
19780;SDS011;10050;55.492;13.506;2023-02-21T11:03:51;13.17;;;3.33;;
19780;SDS011;10050;55.492;13.506;2023-02-21T11:06:26;14.20;;;3.60;;
19780;SDS011;10050;55.492;13.506;2023-02-21T11:08:55;20.70;;;3.43;;
19780;SDS011;10050;55.492;13.506;2023-02-21T11:11:35;13.67;;;3.77;;
19780;SDS011;10050;55.492;13.506;2023-02-21T11:16:35;13.33;;;3.60;;
19780;SDS011;10050;55.492;13.506;2023-02-21T11:19:05;9.80;;;3.17;;
19780;SDS011;10050;55.492;13.506;2023-02-21T11:21:31;13.03;;;3.37;;
19780;SDS011;10050;55.492;13.506;2023-02-21T11:24:01;17.23;;;3.67;;
19780;SDS011;10050;55.492;13.506;2023-02-21T11:26:29;15.77;;;3.37;;
19780;SDS011;10050;55.492;13.506;2023-02-21T11:29:06;21.27;;;2.93;;
19780;SDS011;10050;55.492;13.506;2023-02-21T11:31:38;17.20;;;3.63;;
19780;SDS011;10050;55.492;13.506;2023-02-21T11:34:04;16.67;;;3.30;;
19780;SDS011;10050;55.492;13.506;2023-02-21T11:36:33;19.13;;;3.77;;
19780;SDS011;10050;55.492;13.506;2023-02-21T11:41:36;14.43;;;3.97;;
19780;SDS011;10050;55.492;13.506;2023-02-21T11:44:31;12.37;;;3.10;;
19780;SDS011;10050;55.492;13.506;2023-02-21T11:47:10;12.40;;;3.30;;
19780;SDS011;10050;55.492;13.506;2023-02-21T11:49:43;16.43;;;3.57;;
19780;SDS011;10050;55.492;13.506;2023-02-21T11:52:13;15.07;;;3.17;;
19780;SDS011;10050;55.492;13.506;2023-02-21T11:54:44;15.30;;;3.17;;
19780;SDS011;10050;55.492;13.506;2023-02-21T11:59:47;13.27;;;3.50;;
19780;SDS011;10050;55.492;13.506;2023-02-21T12:22:40;13.77;;;3.00;;
19780;SDS011;10050;55.492;13.506;2023-02-21T12:25:28;13.90;;;3.67;;
19780;SDS011;10050;55.492;13.506;2023-02-21T12:31:11;10.93;;;3.10;;
19780;SDS011;10050;55.492;13.506;2023-02-21T12:34:07;11.10;;;3.73;;
19780;SDS011;10050;55.492;13.506;2023-02-21T12:37:01;14.93;;;3.20;;
19780;SDS011;10050;55.492;13.506;2023-02-21T12:50:29;13.90;;;3.53;;
19780;SDS011;10050;55.492;13.506;2023-02-21T12:53:00;16.93;;;3.67;;
19780;SDS011;10050;55.492;13.506;2023-02-21T12:55:37;16.27;;;3.40;;
19780;SDS011;10050;55.492;13.506;2023-02-21T12:58:32;10.10;;;2.93;;
19780;SDS011;10050;55.492;13.506;2023-02-21T13:06:59;13.73;;;3.07;;
19780;SDS011;10050;55.492;13.506;2023-02-21T13:09:51;15.23;;;3.23;;
19780;SDS011;10050;55.492;13.506;2023-02-21T13:12:20;14.67;;;2.80;;
19780;SDS011;10050;55.492;13.506;2023-02-21T13:17:20;14.43;;;2.97;;
19780;SDS011;10050;55.492;13.506;2023-02-21T13:28:24;15.27;;;2.90;;
19780;SDS011;10050;55.492;13.506;2023-02-21T13:30:57;7.60;;;2.07;;
19780;SDS011;10050;55.492;13.506;2023-02-21T13:33:36;9.70;;;2.30;;
19780;SDS011;10050;55.492;13.506;2023-02-21T13:39:32;10.07;;;2.43;;
19780;SDS011;10050;55.492;13.506;2023-02-21T13:41:43;11.93;;;2.67;;
19780;SDS011;10050;55.492;13.506;2023-02-21T13:44:17;9.43;;;3.10;;
19780;SDS011;10050;55.492;13.506;2023-02-21T13:47:02;8.20;;;2.23;;
19780;SDS011;10050;55.492;13.506;2023-02-21T13:52:27;14.13;;;3.03;;
19780;SDS011;10050;55.492;13.506;2023-02-21T14:05:23;9.30;;;2.60;;
19780;SDS011;10050;55.492;13.506;2023-02-21T14:07:57;12.43;;;2.40;;
19780;SDS011;10050;55.492;13.506;2023-02-21T14:10:43;10.83;;;2.50;;
19780;SDS011;10050;55.492;13.506;2023-02-21T14:13:17;6.60;;;2.37;;
19780;SDS011;10050;55.492;13.506;2023-02-21T14:15:46;13.13;;;2.80;;
19780;SDS011;10050;55.492;13.506;2023-02-21T14:18:21;5.77;;;2.07;;
19780;SDS011;10050;55.492;13.506;2023-02-21T14:20:52;12.30;;;2.93;;
19780;SDS011;10050;55.492;13.506;2023-02-21T14:23:21;8.13;;;2.43;;
19780;SDS011;10050;55.492;13.506;2023-02-21T14:25:59;11.60;;;2.33;;
19780;SDS011;10050;55.492;13.506;2023-02-21T14:31:45;7.70;;;2.27;;
19780;SDS011;10050;55.492;13.506;2023-02-21T14:34:26;13.33;;;2.63;;
19780;SDS011;10050;55.492;13.506;2023-02-21T14:37:00;11.90;;;2.20;;
19780;SDS011;10050;55.492;13.506;2023-02-21T14:39:38;8.63;;;2.30;;
19780;SDS011;10050;55.492;13.506;2023-02-21T14:47:45;9.13;;;2.63;;
19780;SDS011;10050;55.492;13.506;2023-02-21T14:50:19;11.50;;;2.60;;
19780;SDS011;10050;55.492;13.506;2023-02-21T14:58:42;9.30;;;1.87;;
19780;SDS011;10050;55.492;13.506;2023-02-21T15:01:40;8.43;;;2.17;;
19780;SDS011;10050;55.492;13.506;2023-02-21T15:09:43;11.73;;;2.43;;
19780;SDS011;10050;55.492;13.506;2023-02-21T15:12:37;4.93;;;1.93;;
19780;SDS011;10050;55.492;13.506;2023-02-21T15:15:10;7.43;;;2.10;;
19780;SDS011;10050;55.492;13.506;2023-02-21T15:17:42;7.40;;;2.20;;
19780;SDS011;10050;55.492;13.506;2023-02-21T15:20:19;6.03;;;1.93;;
19780;SDS011;10050;55.492;13.506;2023-02-21T15:22:44;8.10;;;2.53;;
19780;SDS011;10050;55.492;13.506;2023-02-21T15:25:18;8.47;;;2.30;;
19780;SDS011;10050;55.492;13.506;2023-02-21T15:32:39;5.83;;;1.97;;
19780;SDS011;10050;55.492;13.506;2023-02-21T15:35:05;7.00;;;2.20;;
19780;SDS011;10050;55.492;13.506;2023-02-21T15:37:38;11.73;;;2.43;;
19780;SDS011;10050;55.492;13.506;2023-02-21T15:40:12;10.47;;;2.33;;
19780;SDS011;10050;55.492;13.506;2023-02-21T15:42:48;10.37;;;2.20;;
19780;SDS011;10050;55.492;13.506;2023-02-21T15:45:17;9.47;;;2.63;;
19780;SDS011;10050;55.492;13.506;2023-02-21T15:47:52;9.33;;;2.70;;
19780;SDS011;10050;55.492;13.506;2023-02-21T15:50:29;8.00;;;2.37;;
19780;SDS011;10050;55.492;13.506;2023-02-21T15:52:56;8.53;;;2.10;;
19780;SDS011;10050;55.492;13.506;2023-02-21T15:55:39;6.60;;;2.03;;
19780;SDS011;10050;55.492;13.506;2023-02-21T16:00:38;7.50;;;2.37;;
19780;SDS011;10050;55.492;13.506;2023-02-21T16:06:09;6.63;;;2.13;;
19780;SDS011;10050;55.492;13.506;2023-02-21T16:08:49;10.57;;;1.90;;
19780;SDS011;10050;55.492;13.506;2023-02-21T16:11:23;9.27;;;2.33;;
19780;SDS011;10050;55.492;13.506;2023-02-21T16:13:51;7.40;;;2.60;;
19780;SDS011;10050;55.492;13.506;2023-02-21T16:16:17;13.23;;;2.57;;
19780;SDS011;10050;55.492;13.506;2023-02-21T16:18:43;6.03;;;1.90;;
19780;SDS011;10050;55.492;13.506;2023-02-21T16:21:12;9.50;;;2.60;;
19780;SDS011;10050;55.492;13.506;2023-02-21T16:23:47;8.83;;;2.70;;
19780;SDS011;10050;55.492;13.506;2023-02-21T16:28:41;9.20;;;2.87;;
19780;SDS011;10050;55.492;13.506;2023-02-21T16:31:14;13.10;;;2.47;;
19780;SDS011;10050;55.492;13.506;2023-02-21T16:33:41;10.60;;;4.10;;
19780;SDS011;10050;55.492;13.506;2023-02-21T16:36:08;14.47;;;3.10;;
19780;SDS011;10050;55.492;13.506;2023-02-21T16:38:42;11.50;;;3.43;;
19780;SDS011;10050;55.492;13.506;2023-02-21T16:41:11;8.90;;;2.73;;
19780;SDS011;10050;55.492;13.506;2023-02-21T16:43:38;14.43;;;3.50;;
19780;SDS011;10050;55.492;13.506;2023-02-21T16:46:04;10.30;;;2.73;;
19780;SDS011;10050;55.492;13.506;2023-02-21T16:48:30;12.90;;;3.43;;
19780;SDS011;10050;55.492;13.506;2023-02-21T16:51:00;9.40;;;3.47;;
19780;SDS011;10050;55.492;13.506;2023-02-21T16:53:27;11.33;;;3.00;;
19780;SDS011;10050;55.492;13.506;2023-02-21T16:55:53;8.30;;;3.00;;
19780;SDS011;10050;55.492;13.506;2023-02-21T17:00:52;11.13;;;3.13;;
19780;SDS011;10050;55.492;13.506;2023-02-21T17:03:21;14.47;;;2.93;;
19780;SDS011;10050;55.492;13.506;2023-02-21T17:05:47;9.83;;;2.47;;
19780;SDS011;10050;55.492;13.506;2023-02-21T17:08:15;7.17;;;2.60;;
19780;SDS011;10050;55.492;13.506;2023-02-21T17:10:41;10.30;;;2.30;;
19780;SDS011;10050;55.492;13.506;2023-02-21T17:13:07;9.47;;;2.70;;
19780;SDS011;10050;55.492;13.506;2023-02-21T17:15:32;5.63;;;2.57;;
19780;SDS011;10050;55.492;13.506;2023-02-21T17:17:58;7.80;;;2.80;;
19780;SDS011;10050;55.492;13.506;2023-02-21T17:20:24;7.57;;;2.53;;
19780;SDS011;10050;55.492;13.506;2023-02-21T17:22:51;6.20;;;2.23;;
19780;SDS011;10050;55.492;13.506;2023-02-21T17:25:18;6.93;;;2.33;;
19780;SDS011;10050;55.492;13.506;2023-02-21T17:27:45;7.33;;;2.33;;
19780;SDS011;10050;55.492;13.506;2023-02-21T17:30:11;9.13;;;2.47;;
19780;SDS011;10050;55.492;13.506;2023-02-21T17:32:37;8.57;;;2.27;;